Mooleulooloo Airport

YLUL · 澳大利亚

METAR YLUL · Mooleulooloo Airport

23 六月 16:30 LT
14m
使用的METAR站距离机场355 km。
罗盘
风向 的 风向 350° Mooleulooloo Airport 16/34
风: 11 kt, 4 beaufort

11 kt

改变
0 ft 1.000 2.000 3.000 4.000 5.000
未检测到零云
METAR YPWR 230700Z AUTO 35011KT 9999 // NCD 13/M01 Q1020 RF00.0/000.0

METAR Mooleulooloo Airport - YLUL

该字段位于澳大利亚中。 该机场位于纬度-31,64583和经度140,51249。 该机场有3条跑道: 16/34, 2/20 和 8/26. 本场的ICAO机场代码为YLUL。 机场在Melbourne FIR中。

该航空气象观测是针对Woomera Airfield在2024年6月23日 16:30, 当地时间进行的。

机场观察

风向为350°,速度为11 kt。

可见度为10 km 或者更多。

有未检测到零云。 没有观察到天花板。

温度和风寒是13 °C。 露点为-1 °C,相对湿度为38%。 海平面上的气压为1020 hPa (QNH)。

白天

今天,太阳从07:07升起,在17:12降落。 这适用于Mooleulooloo Airport,世界夏令时可能有所不同。 当地时间与世界标准时间之间的时差为+9 小时 30 分钟。 夏令时目前正在进行中。

公司介绍

我们没有关于这个机场的公司信息。

体会

到Vliegles.nl去找飞行课程,跳伞和其他飞行体验。 浏览页面,了解Mooleulooloo Airport附近所有可用的活动。 你也可以使用搜索功能来寻找你所在地附近的特定飞行课程、跳伞或其他飞行体验。

跑道

Id 标题 侧风 逆风 侧风 %
16/34 171°-351° 11 kt 2 %
2/20 031°-211° 7 kt 8 kt 66 %
8/26 085°-265° 11 kt 100 %

逆风成分最大的方向会被突出显示,并用于横风计算。 这并不一定意味着这个方向在使用。

乌云

- NCD 未检测到零云

温度 & 天气

温度 13 °C
露点 -1 °C
相对湿度 38%
Kp-index 1 (0-9)

白天

日出
07:21
中午
12:25
日落
17:28 (44m)

小工具

你想在你的网站上有一个关于Mooleulooloo Airport的当前航空天气(METAR)的小部件吗?

显示HTML代码
报告变更